createdAt,value
2019-03-19T00:01:29.326Z,11.50
2019-03-19T00:04:02.661Z,14.03
2019-03-19T00:06:36.006Z,11.60
2019-03-19T00:09:09.433Z,11.83
2019-03-19T00:11:42.866Z,16.03
2019-03-19T00:14:16.187Z,14.10
2019-03-19T00:16:49.540Z,12.87
2019-03-19T00:19:22.970Z,13.17
2019-03-19T00:21:56.341Z,15.60
2019-03-19T00:24:29.693Z,16.87
2019-03-19T00:27:03.183Z,15.87
2019-03-19T00:29:36.550Z,15.80
2019-03-19T00:32:10.011Z,15.80
2019-03-19T00:34:43.359Z,14.37
2019-03-19T00:37:16.739Z,15.67
2019-03-19T00:39:50.076Z,14.87
2019-03-19T00:42:23.500Z,15.70
2019-03-19T00:44:56.933Z,13.30
2019-03-19T00:47:30.305Z,13.47
2019-03-19T00:50:06.185Z,15.23
2019-03-19T00:52:39.541Z,12.90
2019-03-19T00:55:12.992Z,17.53
2019-03-19T00:57:46.322Z,14.30
2019-03-19T01:00:20.954Z,14.53
2019-03-19T01:02:54.332Z,14.17
2019-03-19T01:05:27.746Z,13.03
2019-03-19T01:08:01.258Z,15.27
2019-03-19T01:10:34.622Z,11.03
2019-03-19T01:13:08.153Z,12.43
2019-03-19T01:15:41.613Z,16.57
2019-03-19T01:18:14.978Z,11.47
2019-03-19T01:20:48.381Z,12.40
2019-03-19T01:23:21.823Z,12.23
2019-03-19T01:25:55.971Z,12.47
2019-03-19T01:28:29.524Z,16.70
2019-03-19T01:31:02.894Z,13.17
2019-03-19T01:33:36.243Z,16.03
2019-03-19T01:36:09.648Z,14.60
2019-03-19T01:38:43.013Z,14.30
2019-03-19T01:41:16.351Z,13.63
2019-03-19T01:43:49.816Z,12.93
2019-03-19T01:46:23.236Z,12.53
2019-03-19T01:48:56.681Z,14.30
2019-03-19T01:51:30.031Z,14.77
2019-03-19T01:54:03.480Z,13.20
2019-03-19T01:56:36.822Z,11.63
2019-03-19T01:59:10.193Z,12.13
2019-03-19T02:01:43.540Z,13.53
2019-03-19T02:04:16.895Z,11.67
2019-03-19T02:06:50.240Z,14.47
2019-03-19T02:09:23.765Z,13.77
2019-03-19T02:11:57.208Z,13.17
2019-03-19T02:14:30.687Z,11.77
2019-03-19T02:17:04.155Z,10.57
2019-03-19T02:19:37.614Z,12.57
2019-03-19T02:22:11.036Z,12.47
2019-03-19T02:24:44.452Z,13.90
2019-03-19T02:27:17.933Z,13.43
2019-03-19T02:29:51.661Z,14.33
2019-03-19T02:32:25.118Z,11.97
2019-03-19T02:34:58.469Z,11.70
2019-03-19T02:37:31.839Z,13.93
2019-03-19T02:40:11.442Z,11.13
2019-03-19T02:42:44.772Z,11.93
2019-03-19T02:45:18.227Z,12.07
2019-03-19T02:47:51.656Z,14.27
2019-03-19T02:50:25.068Z,10.63
2019-03-19T02:52:58.421Z,11.50
2019-03-19T02:55:31.832Z,13.17
2019-03-19T02:58:05.336Z,14.40
2019-03-19T03:00:38.694Z,12.33
2019-03-19T03:03:12.217Z,12.43
2019-03-19T03:05:45.618Z,14.63
2019-03-19T03:08:19.082Z,15.93
2019-03-19T03:10:52.525Z,16.40
2019-03-19T03:13:25.952Z,13.50
2019-03-19T03:15:59.306Z,15.97
2019-03-19T03:18:32.693Z,14.67
2019-03-19T03:21:06.208Z,14.37
2019-03-19T03:23:39.585Z,13.70
2019-03-19T03:26:12.938Z,13.10
2019-03-19T03:28:46.366Z,12.67
2019-03-19T03:31:19.769Z,11.70
2019-03-19T03:33:53.163Z,13.83
2019-03-19T03:36:26.512Z,13.07
2019-03-19T03:38:59.886Z,15.87
2019-03-19T03:41:33.350Z,14.93
2019-03-19T03:44:06.777Z,13.33
2019-03-19T03:46:40.246Z,15.73
2019-03-19T03:49:13.679Z,12.57
2019-03-19T03:51:47.098Z,12.57
2019-03-19T03:54:20.526Z,14.50
2019-03-19T03:57:01.927Z,13.87
2019-03-19T03:59:29.137Z,11.57
2019-03-19T04:02:02.623Z,11.67
2019-03-19T04:04:36.111Z,13.87
2019-03-19T04:07:09.466Z,13.43
2019-03-19T04:09:42.849Z,12.17
2019-03-19T04:12:16.241Z,11.30
2019-03-19T04:14:49.642Z,11.70
2019-03-19T04:17:23.066Z,14.80
2019-03-19T04:19:56.455Z,15.93
2019-03-19T04:22:29.870Z,13.63
2019-03-19T04:25:03.685Z,15.60
2019-03-19T04:27:40.123Z,14.43
2019-03-19T04:30:19.008Z,10.87
2019-03-19T04:32:52.403Z,14.17
2019-03-19T04:35:25.837Z,9.53
2019-03-19T04:37:59.215Z,12.27
2019-03-19T04:40:32.587Z,10.87
2019-03-19T04:43:05.934Z,10.90
2019-03-19T04:45:39.296Z,13.97
2019-03-19T04:48:12.703Z,12.80
2019-03-19T04:50:46.072Z,12.63
2019-03-19T04:53:19.418Z,9.67
2019-03-19T04:55:52.788Z,10.90
2019-03-19T04:58:26.129Z,13.43
2019-03-19T05:00:59.524Z,15.40
2019-03-19T05:03:32.946Z,11.53
2019-03-19T05:06:06.376Z,15.73
2019-03-19T05:08:39.916Z,14.57
2019-03-19T05:11:13.292Z,11.10
2019-03-19T05:13:46.661Z,10.63
2019-03-19T05:16:20.024Z,11.90
2019-03-19T05:18:53.920Z,14.67
2019-03-19T05:21:27.283Z,12.10
2019-03-19T05:24:00.655Z,9.80
2019-03-19T05:26:34.016Z,12.30
2019-03-19T05:29:07.437Z,11.73
2019-03-19T05:31:40.854Z,9.87
2019-03-19T05:34:14.216Z,11.17
2019-03-19T05:36:47.595Z,16.33
2019-03-19T05:39:21.041Z,15.23
2019-03-19T05:41:54.503Z,14.40
2019-03-19T05:44:27.906Z,12.90
2019-03-19T05:47:01.302Z,12.63
2019-03-19T05:49:34.651Z,10.63
2019-03-19T05:52:08.060Z,12.97
2019-03-19T05:54:41.432Z,18.53
2019-03-19T05:57:14.842Z,18.10
2019-03-19T05:59:48.289Z,15.17
2019-03-19T06:02:21.684Z,14.03
2019-03-19T06:04:55.144Z,12.93
2019-03-19T06:07:28.525Z,13.80
2019-03-19T06:10:01.875Z,12.63
2019-03-19T06:12:35.469Z,15.57
2019-03-19T06:15:11.639Z,13.33
2019-03-19T06:17:44.992Z,12.10
2019-03-19T06:20:19.476Z,14.00
2019-03-19T06:22:52.894Z,11.90
2019-03-19T06:25:26.251Z,13.50
2019-03-19T06:28:00.897Z,14.30
2019-03-19T06:30:34.504Z,14.83
2019-03-19T06:33:07.992Z,15.97
2019-03-19T06:35:41.453Z,15.67
2019-03-19T06:38:14.781Z,12.70
2019-03-19T06:40:48.233Z,17.33
2019-03-19T06:43:21.564Z,14.47
2019-03-19T06:45:54.947Z,28.23
2019-03-19T06:48:28.292Z,19.13
2019-03-19T06:51:01.676Z,18.90
2019-03-19T06:53:35.033Z,20.43
2019-03-19T06:56:08.566Z,20.40
2019-03-19T06:58:42.028Z,18.33
2019-03-19T07:01:17.353Z,23.73
2019-03-19T07:03:50.544Z,22.73
2019-03-19T07:06:24.960Z,19.40
2019-03-19T07:08:58.409Z,24.20
2019-03-19T07:11:31.782Z,22.73
2019-03-19T07:14:05.213Z,20.97
2019-03-19T07:16:38.628Z,18.03
2019-03-19T07:19:11.984Z,15.03
2019-03-19T07:21:45.425Z,12.37
2019-03-19T07:24:18.766Z,10.80
2019-03-19T07:26:52.201Z,9.97
2019-03-19T07:29:25.565Z,12.33
2019-03-19T07:31:59.023Z,14.27
2019-03-19T07:34:32.455Z,10.97
2019-03-19T07:37:05.889Z,9.47
2019-03-19T07:39:39.312Z,9.73
2019-03-19T07:42:12.686Z,11.03
2019-03-19T07:44:46.088Z,11.80
2019-03-19T07:47:19.460Z,11.60
2019-03-19T07:49:52.806Z,13.73
2019-03-19T07:52:26.185Z,13.57
2019-03-19T07:54:59.624Z,12.73
2019-03-19T07:57:33.070Z,13.57
2019-03-19T08:00:09.627Z,13.57
2019-03-19T08:02:42.983Z,15.37
2019-03-19T08:05:16.401Z,14.40
2019-03-19T08:07:49.757Z,14.30
2019-03-19T08:10:23.172Z,14.03
2019-03-19T08:12:56.672Z,12.93
2019-03-19T08:15:30.072Z,15.93
2019-03-19T08:18:03.504Z,14.27
2019-03-19T08:20:36.968Z,14.00
2019-03-19T08:23:10.351Z,17.30
2019-03-19T08:25:43.719Z,18.53
2019-03-19T08:28:17.169Z,15.27
2019-03-19T08:30:50.510Z,19.03
2019-03-19T08:33:23.910Z,13.23
2019-03-19T08:35:57.251Z,14.77
2019-03-19T08:38:30.591Z,16.53
2019-03-19T08:41:03.950Z,15.27
2019-03-19T08:43:37.385Z,17.77
2019-03-19T08:46:10.887Z,16.33
2019-03-19T08:48:44.321Z,19.47
2019-03-19T08:51:17.744Z,18.13
2019-03-19T08:53:51.196Z,16.00
2019-03-19T08:56:24.518Z,20.80
2019-03-19T08:59:05.792Z,14.73
2019-03-19T09:01:34.208Z,15.13
2019-03-19T09:04:07.657Z,13.93
2019-03-19T09:06:41.380Z,10.47
2019-03-19T09:09:14.773Z,16.37
2019-03-19T09:11:48.174Z,13.83
2019-03-19T09:14:21.638Z,10.87
2019-03-19T09:16:55.069Z,12.00
2019-03-19T09:19:28.494Z,13.10
2019-03-19T09:22:01.932Z,12.07
2019-03-19T09:24:35.361Z,10.37
2019-03-19T09:27:08.794Z,16.17
2019-03-19T09:29:42.151Z,12.87
2019-03-19T09:32:15.566Z,9.37
2019-03-19T09:34:48.936Z,11.30
2019-03-19T09:37:22.367Z,8.27
2019-03-19T09:39:55.786Z,12.00
2019-03-19T09:42:29.290Z,10.73
2019-03-19T09:45:02.988Z,11.03
2019-03-19T09:47:38.484Z,10.53
2019-03-19T09:50:19.880Z,11.27
2019-03-19T09:52:53.339Z,13.37
2019-03-19T09:55:26.866Z,10.63
2019-03-19T09:58:00.315Z,12.73
2019-03-19T10:00:33.734Z,6.27
2019-03-19T10:03:07.170Z,8.53
2019-03-19T10:05:40.545Z,5.80
2019-03-19T10:08:13.999Z,6.90
2019-03-19T10:10:47.425Z,9.23
2019-03-19T10:13:20.876Z,10.97
2019-03-19T10:15:54.292Z,10.63
2019-03-19T10:18:27.828Z,11.17
2019-03-19T10:21:01.265Z,8.90
2019-03-19T10:23:34.635Z,9.63
2019-03-19T10:26:07.986Z,11.67
2019-03-19T10:28:41.379Z,11.67
2019-03-19T10:31:14.789Z,11.33
2019-03-19T10:33:48.799Z,6.90
2019-03-19T10:36:22.194Z,6.57
2019-03-19T10:38:55.672Z,4.83
2019-03-19T10:41:29.171Z,8.47
2019-03-19T10:44:02.534Z,8.53
2019-03-19T10:46:35.962Z,12.10
2019-03-19T10:49:09.419Z,6.17
2019-03-19T10:51:42.841Z,9.43
2019-03-19T10:54:19.276Z,6.07
2019-03-19T10:56:52.642Z,8.90
2019-03-19T10:59:26.127Z,5.07
2019-03-19T11:01:59.648Z,9.20
2019-03-19T11:04:33.073Z,5.33
2019-03-19T11:07:06.412Z,5.50
2019-03-19T11:09:39.848Z,4.33
2019-03-19T11:12:13.176Z,4.57
2019-03-19T11:14:46.615Z,8.50
2019-03-19T11:17:19.964Z,9.10
2019-03-19T11:19:53.406Z,7.40
2019-03-19T11:22:26.817Z,6.37
2019-03-19T11:25:02.489Z,5.60
2019-03-19T11:27:36.038Z,4.33
2019-03-19T11:30:15.254Z,6.80
2019-03-19T11:32:48.731Z,6.03
2019-03-19T11:35:22.352Z,5.77
2019-03-19T11:37:56.703Z,7.93
2019-03-19T11:40:30.175Z,11.27
2019-03-19T11:43:03.712Z,4.70
2019-03-19T11:45:37.214Z,7.10
2019-03-19T11:48:10.728Z,5.27
2019-03-19T11:50:44.152Z,5.77
2019-03-19T11:53:17.578Z,5.50
2019-03-19T11:55:51.040Z,3.57
2019-03-19T11:58:24.381Z,6.80
2019-03-19T12:00:59.444Z,6.13
2019-03-19T12:03:32.802Z,5.97
2019-03-19T12:06:06.170Z,9.37
2019-03-19T12:08:39.509Z,7.63
2019-03-19T12:11:12.934Z,3.90
2019-03-19T12:13:46.285Z,4.90
2019-03-19T12:16:19.720Z,6.83
2019-03-19T12:18:53.111Z,8.47
2019-03-19T12:21:26.551Z,4.17
2019-03-19T12:23:59.875Z,6.17
2019-03-19T12:26:33.316Z,8.13
2019-03-19T12:29:06.676Z,5.93
2019-03-19T12:31:40.259Z,5.73
2019-03-19T12:34:13.672Z,8.37
2019-03-19T12:36:47.043Z,4.60
2019-03-19T12:39:20.435Z,6.67
2019-03-19T12:41:53.949Z,7.90
2019-03-19T12:44:30.089Z,8.10
2019-03-19T12:47:03.511Z,7.43
2019-03-19T12:49:36.981Z,7.70
2019-03-19T12:52:10.875Z,6.60
2019-03-19T12:54:44.316Z,10.33
2019-03-19T12:57:19.232Z,8.37
2019-03-19T12:59:52.979Z,7.03
2019-03-19T13:02:26.312Z,6.37
2019-03-19T13:04:59.766Z,5.97
2019-03-19T13:07:33.173Z,7.97
2019-03-19T13:10:09.708Z,6.13
2019-03-19T13:12:43.122Z,7.40
2019-03-19T13:15:19.224Z,6.47
2019-03-19T13:17:52.604Z,7.33
2019-03-19T13:20:26.034Z,8.30
2019-03-19T13:22:59.454Z,7.63
2019-03-19T13:25:32.941Z,6.83
2019-03-19T13:28:06.833Z,4.60
2019-03-19T13:30:45.040Z,7.53
2019-03-19T13:33:15.342Z,5.53
2019-03-19T13:35:48.696Z,6.57
2019-03-19T13:38:22.129Z,6.77
2019-03-19T13:40:55.627Z,7.43
2019-03-19T13:43:28.979Z,5.63
2019-03-19T13:46:02.363Z,5.97
2019-03-19T13:48:35.794Z,11.20
2019-03-19T13:51:09.703Z,4.03
2019-03-19T13:53:43.050Z,5.83
2019-03-19T13:56:16.489Z,7.30
2019-03-19T13:58:49.918Z,8.63
2019-03-19T14:01:23.261Z,7.10
2019-03-19T14:03:56.590Z,5.93
2019-03-19T14:06:29.952Z,9.53
2019-03-19T14:09:04.148Z,7.23
2019-03-19T14:11:37.602Z,5.83
2019-03-19T14:14:11.219Z,7.07
2019-03-19T14:16:44.675Z,6.00
2019-03-19T14:19:18.128Z,5.30
2019-03-19T14:21:51.555Z,4.73
2019-03-19T14:24:24.889Z,8.93
2019-03-19T14:26:58.326Z,6.70
2019-03-19T14:29:32.835Z,7.97
2019-03-19T14:32:06.384Z,6.03
2019-03-19T14:34:39.690Z,5.87
2019-03-19T14:37:13.185Z,5.57
2019-03-19T14:39:46.581Z,9.53
2019-03-19T14:42:19.921Z,7.87
2019-03-19T14:44:53.270Z,6.37
2019-03-19T14:47:28.268Z,6.60
2019-03-19T14:50:01.902Z,6.20
2019-03-19T14:52:35.326Z,3.93
2019-03-19T14:55:09.312Z,6.20
2019-03-19T14:57:42.759Z,4.50
2019-03-19T15:00:22.944Z,5.20
2019-03-19T15:02:56.383Z,4.97
2019-03-19T15:05:29.801Z,9.37
2019-03-19T15:08:03.230Z,6.27
2019-03-19T15:10:36.591Z,9.50
2019-03-19T15:13:10.303Z,7.63
2019-03-19T15:15:43.727Z,4.83
2019-03-19T15:18:17.099Z,5.60
2019-03-19T15:20:52.952Z,9.63
2019-03-19T15:23:25.717Z,8.03
2019-03-19T15:25:59.416Z,8.63
2019-03-19T15:28:32.961Z,6.23
2019-03-19T15:31:06.441Z,6.60
2019-03-19T15:33:39.847Z,10.67
2019-03-19T15:36:13.163Z,7.63
2019-03-19T15:38:46.540Z,6.87
2019-03-19T15:41:19.956Z,4.07
2019-03-19T15:43:53.408Z,7.13
2019-03-19T15:46:26.765Z,7.33
2019-03-19T15:49:00.551Z,11.00
2019-03-19T15:51:34.086Z,6.20
2019-03-19T15:54:07.502Z,6.07
2019-03-19T15:56:40.937Z,9.00
2019-03-19T15:59:14.316Z,6.40
2019-03-19T16:01:47.737Z,7.93
2019-03-19T16:04:21.201Z,6.27
2019-03-19T16:06:54.650Z,11.63
2019-03-19T16:09:28.107Z,7.10
2019-03-19T16:12:01.560Z,8.40
2019-03-19T16:14:35.011Z,8.80
2019-03-19T16:17:08.420Z,5.90
2019-03-19T16:19:41.861Z,3.80
2019-03-19T16:22:15.233Z,7.13
2019-03-19T16:24:48.563Z,7.70
2019-03-19T16:27:22.045Z,10.03
2019-03-19T16:29:55.372Z,6.50
2019-03-19T16:32:28.945Z,8.27
2019-03-19T16:35:02.300Z,8.40
2019-03-19T16:37:35.692Z,7.13
2019-03-19T16:40:19.795Z,8.50
2019-03-19T16:42:53.164Z,8.43
2019-03-19T16:45:26.515Z,8.47
2019-03-19T16:47:59.894Z,6.43
2019-03-19T16:50:33.332Z,8.13
2019-03-19T16:53:06.856Z,8.00
2019-03-19T16:55:40.224Z,8.73
2019-03-19T16:58:13.655Z,5.53
2019-03-19T17:00:47.069Z,8.90
2019-03-19T17:03:27.770Z,8.13
2019-03-19T17:06:01.638Z,6.73
2019-03-19T17:08:35.111Z,11.37
2019-03-19T17:11:10.114Z,9.70
2019-03-19T17:13:43.519Z,11.20
2019-03-19T17:16:16.858Z,8.90
2019-03-19T17:18:50.414Z,8.37
2019-03-19T17:21:23.811Z,9.53
2019-03-19T17:23:57.269Z,13.70
2019-03-19T17:26:30.689Z,8.53
2019-03-19T17:29:04.293Z,10.13
2019-03-19T17:31:37.840Z,11.40
2019-03-19T17:34:11.287Z,9.40
2019-03-19T17:36:44.879Z,7.83
2019-03-19T17:39:18.315Z,8.63
2019-03-19T17:41:51.986Z,9.13
2019-03-19T17:44:25.359Z,10.83
2019-03-19T17:46:58.813Z,11.43
2019-03-19T17:49:32.178Z,8.83
2019-03-19T17:52:05.628Z,11.17
2019-03-19T17:54:38.944Z,8.47
2019-03-19T17:57:12.376Z,11.47
2019-03-19T17:59:45.822Z,10.90
2019-03-19T18:02:23.805Z,14.13
2019-03-19T18:04:54.422Z,10.37
2019-03-19T18:07:27.866Z,11.07
2019-03-19T18:10:01.406Z,10.13
2019-03-19T18:12:34.862Z,12.27
2019-03-19T18:15:11.394Z,5.37
2019-03-19T18:17:44.889Z,6.60
2019-03-19T18:20:18.673Z,10.77
2019-03-19T18:22:52.076Z,9.40
2019-03-19T18:25:25.561Z,6.63
2019-03-19T18:27:59.011Z,10.70
2019-03-19T18:30:35.253Z,13.83
2019-03-19T18:33:08.671Z,11.03
2019-03-19T18:35:42.191Z,10.40
2019-03-19T18:38:18.653Z,11.53
2019-03-19T18:40:52.013Z,9.83
2019-03-19T18:43:25.430Z,9.67
2019-03-19T18:45:58.900Z,9.57
2019-03-19T18:48:32.312Z,13.70
2019-03-19T18:51:05.829Z,18.13
2019-03-19T18:53:39.182Z,9.90
2019-03-19T18:56:12.643Z,11.83
2019-03-19T18:58:46.058Z,8.70
2019-03-19T19:01:19.523Z,12.60
2019-03-19T19:03:52.945Z,11.07
2019-03-19T19:06:26.336Z,31.93
2019-03-19T19:08:59.756Z,11.73
2019-03-19T19:11:33.207Z,20.17
2019-03-19T19:14:06.742Z,19.33
2019-03-19T19:16:40.216Z,17.93
2019-03-19T19:19:13.679Z,17.23
2019-03-19T19:21:47.112Z,15.20
2019-03-19T19:24:20.656Z,23.10
2019-03-19T19:26:54.190Z,46.23
2019-03-19T19:29:27.619Z,31.40
2019-03-19T19:32:01.064Z,33.23
2019-03-19T19:34:34.433Z,31.63
2019-03-19T19:37:07.868Z,31.07
2019-03-19T19:39:41.377Z,32.07
2019-03-19T19:42:14.827Z,30.57
2019-03-19T19:44:48.297Z,25.63
2019-03-19T19:47:21.739Z,18.20
2019-03-19T19:49:55.176Z,22.73
2019-03-19T19:52:29.620Z,19.27
2019-03-19T19:55:03.128Z,12.63
2019-03-19T19:57:36.553Z,10.43
2019-03-19T20:00:21.901Z,11.30
2019-03-19T20:02:55.430Z,17.07
2019-03-19T20:05:28.764Z,16.83
2019-03-19T20:08:02.170Z,15.13
2019-03-19T20:10:35.582Z,14.53
2019-03-19T20:13:09.049Z,16.67
2019-03-19T20:15:42.568Z,18.60
2019-03-19T20:18:15.971Z,11.57
2019-03-19T20:20:49.299Z,14.23
2019-03-19T20:23:22.677Z,15.97
2019-03-19T20:25:56.974Z,14.50
2019-03-19T20:28:30.436Z,16.20
2019-03-19T20:31:03.890Z,16.70
2019-03-19T20:33:37.646Z,16.87
2019-03-19T20:36:11.101Z,14.03
2019-03-19T20:38:44.468Z,16.30
2019-03-19T20:41:17.896Z,12.07
2019-03-19T20:43:51.290Z,14.00
2019-03-19T20:46:24.642Z,12.50
2019-03-19T20:48:58.077Z,12.23
2019-03-19T20:51:31.592Z,13.53
2019-03-19T20:54:05.218Z,14.37
2019-03-19T20:56:38.652Z,8.73
2019-03-19T20:59:12.200Z,13.90
2019-03-19T21:01:45.759Z,14.07
2019-03-19T21:04:19.221Z,13.73
2019-03-19T21:06:52.713Z,15.63
2019-03-19T21:09:26.130Z,16.13
2019-03-19T21:11:59.697Z,13.63
2019-03-19T21:14:33.167Z,14.40
2019-03-19T21:17:06.789Z,12.83
2019-03-19T21:19:40.222Z,10.57
2019-03-19T21:22:13.734Z,10.17
2019-03-19T21:24:47.251Z,13.50
2019-03-19T21:27:20.769Z,7.83
2019-03-19T21:29:54.253Z,16.57
2019-03-19T21:32:27.771Z,10.60
2019-03-19T21:35:01.309Z,10.10
2019-03-19T21:37:34.669Z,11.07
2019-03-19T21:40:15.045Z,7.77
2019-03-19T21:42:48.577Z,9.60
2019-03-19T21:45:22.632Z,8.57
2019-03-19T21:47:56.085Z,16.23
2019-03-19T21:50:29.492Z,9.70
2019-03-19T21:53:03.078Z,8.30
2019-03-19T21:55:36.627Z,11.83
2019-03-19T21:58:09.998Z,13.50
2019-03-19T22:00:43.421Z,9.87
2019-03-19T22:03:16.918Z,7.93
2019-03-19T22:05:50.340Z,10.53
2019-03-19T22:08:23.865Z,11.97
2019-03-19T22:10:57.285Z,8.67
2019-03-19T22:13:30.779Z,9.50
2019-03-19T22:16:04.157Z,9.53
2019-03-19T22:18:37.615Z,9.97
2019-03-19T22:21:11.086Z,8.47
2019-03-19T22:23:44.520Z,9.67
2019-03-19T22:26:17.884Z,10.97
2019-03-19T22:28:51.251Z,8.50
2019-03-19T22:31:24.709Z,8.57
2019-03-19T22:33:58.124Z,8.97
2019-03-19T22:36:31.571Z,9.90
2019-03-19T22:39:07.296Z,8.13
2019-03-19T22:41:40.632Z,9.50
2019-03-19T22:44:14.040Z,6.37
2019-03-19T22:46:47.478Z,5.53
2019-03-19T22:49:20.772Z,8.43
2019-03-19T22:51:54.189Z,4.80
2019-03-19T22:54:27.649Z,12.53
2019-03-19T22:57:01.204Z,7.97
2019-03-19T22:59:34.580Z,7.37
2019-03-19T23:02:08.040Z,10.27
2019-03-19T23:04:41.482Z,8.00
2019-03-19T23:07:14.929Z,9.00
2019-03-19T23:09:48.348Z,7.73
2019-03-19T23:12:21.712Z,8.87
2019-03-19T23:14:55.125Z,9.63
2019-03-19T23:17:28.626Z,7.13
2019-03-19T23:20:02.173Z,6.83
2019-03-19T23:22:35.630Z,10.70
2019-03-19T23:25:09.431Z,6.20
2019-03-19T23:27:42.992Z,6.43
2019-03-19T23:30:21.474Z,7.03
2019-03-19T23:32:55.010Z,10.50
2019-03-19T23:35:28.380Z,10.00
2019-03-19T23:38:01.846Z,11.63
2019-03-19T23:40:35.266Z,7.73
2019-03-19T23:43:08.619Z,6.27
2019-03-19T23:45:42.048Z,8.50
2019-03-19T23:48:15.562Z,10.03
2019-03-19T23:50:49.042Z,5.03
2019-03-19T23:53:22.483Z,8.63
2019-03-19T23:55:55.895Z,9.20
2019-03-19T23:58:29.254Z,7.50
